Time,TemperatureF,DewpointF,PressureIn,WindDirection,WindDirectionDegrees,WindSpeedMPH,WindSpeedGustMPH,Humidity,HourlyPrecipIn,Conditions,Clouds,dailyrainin,SoftwareType,DateUTC
2013-08-19 00:07:00,60.8,57.5,30.03,SW,225,0.0,-999.0,89,-99.99,,,0.00,Acu-Link.com,2013-08-19 04:07:00,
2013-08-19 00:22:00,60.6,57.3,30.03,SE,135,0.0,-999.0,89,-99.99,,,0.00,Acu-Link.com,2013-08-19 04:22:00,
2013-08-19 00:37:00,60.3,57.0,30.03,SW,225,0.0,-999.0,89,-99.99,,,0.00,Acu-Link.com,2013-08-19 04:37:00,
2013-08-19 00:52:00,59.9,57.0,30.02,SW,225,0.0,-999.0,90,-99.99,,,0.00,Acu-Link.com,2013-08-19 04:52:00,
2013-08-19 01:08:00,59.5,56.6,30.01,West,270,0.0,-999.0,90,-99.99,,,0.00,Acu-Link.com,2013-08-19 05:08:00,
2013-08-19 01:23:00,59.4,56.5,30.01,West,270,0.0,-999.0,90,-99.99,,,0.00,Acu-Link.com,2013-08-19 05:23:00,
2013-08-19 01:39:00,59.5,56.6,30.01,East,90,0.0,-999.0,90,-99.99,,,0.00,Acu-Link.com,2013-08-19 05:39:00,
2013-08-19 01:54:00,59.5,56.6,30.01,NW,315,0.0,-999.0,90,-99.99,,,0.00,Acu-Link.com,2013-08-19 05:54:00,
2013-08-19 02:09:00,59.5,56.9,30.00,West,270,0.0,-999.0,91,-99.99,,,0.00,Acu-Link.com,2013-08-19 06:09:00,
2013-08-19 02:25:00,59.2,56.6,30.00,South,180,0.0,-999.0,91,-99.99,,,0.00,Acu-Link.com,2013-08-19 06:25:00,
2013-08-19 02:40:00,59.2,56.6,30.01,NNE,22,0.0,-999.0,91,-99.99,,,0.00,Acu-Link.com,2013-08-19 06:40:00,
2013-08-19 02:55:00,59.0,56.4,30.01,NNE,22,0.0,-999.0,91,-99.99,,,0.00,Acu-Link.com,2013-08-19 06:55:00,
2013-08-19 03:11:00,58.8,56.2,30.00,NE,45,0.0,-999.0,91,-99.99,,,0.00,Acu-Link.com,2013-08-19 07:11:00,
2013-08-19 03:26:00,58.8,56.2,30.00,NE,45,0.0,-999.0,91,-99.99,,,0.00,Acu-Link.com,2013-08-19 07:26:00,
2013-08-19 03:41:00,58.6,56.0,30.00,SE,135,0.0,-999.0,91,-99.99,,,0.00,Acu-Link.com,2013-08-19 07:41:00,
2013-08-19 03:56:00,58.6,56.0,30.00,SW,225,0.0,-999.0,91,-99.99,,,0.00,Acu-Link.com,2013-08-19 07:56:00,
2013-08-19 04:12:00,58.5,55.9,30.01,ESE,112,0.0,-999.0,91,-99.99,,,0.00,Acu-Link.com,2013-08-19 08:12:00,
2013-08-19 04:27:00,58.3,55.7,30.01,NW,315,0.0,-999.0,91,-99.99,,,0.00,Acu-Link.com,2013-08-19 08:27:00,
2013-08-19 04:42:00,58.5,55.9,30.00,WNW,292,0.0,-999.0,91,-99.99,,,0.00,Acu-Link.com,2013-08-19 08:42:00,
2013-08-19 04:57:00,58.1,55.5,30.00,SSE,157,0.0,-999.0,91,-99.99,,,0.00,Acu-Link.com,2013-08-19 08:57:00,
2013-08-19 05:12:00,58.1,55.5,30.00,South,180,0.0,-999.0,91,-99.99,,,0.00,Acu-Link.com,2013-08-19 09:12:00,
2013-08-19 05:27:00,57.9,55.3,30.01,ESE,112,0.0,-999.0,91,-99.99,,,0.00,Acu-Link.com,2013-08-19 09:27:00,
2013-08-19 05:43:00,57.7,55.1,30.01,SW,225,0.0,-999.0,91,-99.99,,,0.00,Acu-Link.com,2013-08-19 09:43:00,
2013-08-19 05:58:00,57.9,55.3,30.01,SSE,157,0.0,-999.0,91,-99.99,,,0.00,Acu-Link.com,2013-08-19 09:58:00,
2013-08-19 06:13:00,57.9,55.3,30.01,ESE,112,0.0,-999.0,91,-99.99,,,0.00,Acu-Link.com,2013-08-19 10:13:00,
2013-08-19 06:29:00,58.3,56.0,30.02,SSW,202,0.0,-999.0,92,-99.99,,,0.00,Acu-Link.com,2013-08-19 10:29:00,
2013-08-19 06:44:00,58.6,56.3,30.02,SW,225,0.0,-999.0,92,-99.99,,,0.00,Acu-Link.com,2013-08-19 10:44:00,
2013-08-19 06:59:00,59.4,57.1,30.01,WNW,292,0.0,-999.0,92,-99.99,,,0.00,Acu-Link.com,2013-08-19 10:59:00,
2013-08-19 07:15:00,60.3,58.0,30.01,West,270,0.0,-999.0,92,-99.99,,,0.00,Acu-Link.com,2013-08-19 11:15:00,
2013-08-19 07:30:00,61.9,59.2,30.01,NNE,22,1.1,-999.0,91,-99.99,,,0.00,Acu-Link.com,2013-08-19 11:30:00,
2013-08-19 07:45:00,63.7,60.1,30.00,WNW,292,3.2,-999.0,88,-99.99,,,0.00,Acu-Link.com,2013-08-19 11:45:00,
2013-08-19 08:00:00,66.6,60.6,30.01,NNE,22,1.1,-999.0,81,-99.99,,,0.00,Acu-Link.com,2013-08-19 12:00:00,
2013-08-19 08:16:00,68.7,61.6,30.01,South,180,0.0,-999.0,78,-99.99,,,0.00,Acu-Link.com,2013-08-19 12:16:00,
2013-08-19 08:31:00,71.6,62.5,30.00,NW,315,1.7,-999.0,73,-99.99,,,0.00,Acu-Link.com,2013-08-19 12:31:00,
2013-08-19 08:46:00,74.8,63.5,30.00,South,180,0.0,-999.0,68,-99.99,,,0.00,Acu-Link.com,2013-08-19 12:46:00,
2013-08-19 09:02:00,76.5,63.4,29.99,SE,135,1.1,-999.0,64,-99.99,,,0.00,Acu-Link.com,2013-08-19 13:02:00,
2013-08-19 09:17:00,74.1,63.3,29.99,West,270,1.7,-999.0,69,-99.99,,,0.00,Acu-Link.com,2013-08-19 13:17:00,
2013-08-19 09:32:00,75.4,64.5,29.99,WSW,247,3.7,-999.0,69,-99.99,,,0.00,Acu-Link.com,2013-08-19 13:32:00,
2013-08-19 09:47:00,74.8,63.5,29.98,SW,225,3.2,-999.0,68,-99.99,,,0.00,Acu-Link.com,2013-08-19 13:47:00,
2013-08-19 10:03:00,76.8,65.0,29.98,NNW,337,0.0,-999.0,67,-99.99,,,0.00,Acu-Link.com,2013-08-19 14:03:00,
2013-08-19 10:18:00,77.9,65.2,29.98,West,270,1.7,-999.0,65,-99.99,,,0.00,Acu-Link.com,2013-08-19 14:18:00,
2013-08-19 10:33:00,76.8,65.0,29.98,West,270,1.1,-999.0,67,-99.99,,,0.00,Acu-Link.com,2013-08-19 14:33:00,
2013-08-19 10:48:00,78.8,66.0,29.97,South,180,2.2,-999.0,65,-99.99,,,0.00,Acu-Link.com,2013-08-19 14:48:00,
2013-08-19 11:03:00,79.9,65.7,29.97,SSW,202,3.2,-999.0,62,-99.99,,,0.00,Acu-Link.com,2013-08-19 15:03:00,
2013-08-19 11:18:00,79.7,66.0,29.96,SSE,157,1.7,-999.0,63,-99.99,,,0.00,Acu-Link.com,2013-08-19 15:18:00,
2013-08-19 11:34:00,81.1,65.4,29.96,West,270,2.2,-999.0,59,-99.99,,,0.00,Acu-Link.com,2013-08-19 15:34:00,
2013-08-19 11:49:00,81.0,65.8,29.95,NNW,337,2.2,-999.0,60,-99.99,,,0.00,Acu-Link.com,2013-08-19 15:49:00,
2013-08-19 12:05:00,81.1,66.4,29.95,South,180,1.7,-999.0,61,-99.99,,,0.00,Acu-Link.com,2013-08-19 16:05:00,
2013-08-19 12:20:00,80.8,65.1,29.94,ESE,112,2.2,-999.0,59,-99.99,,,0.00,Acu-Link.com,2013-08-19 16:20:00,
2013-08-19 12:35:00,80.1,64.9,29.95,East,90,2.2,-999.0,60,-99.99,,,0.00,Acu-Link.com,2013-08-19 16:35:00,
2013-08-19 12:50:00,77.7,66.7,29.95,ESE,112,0.0,-999.0,69,-99.99,,,0.00,Acu-Link.com,2013-08-19 16:50:00,
2013-08-19 13:05:00,77.9,66.5,29.94,NNW,337,5.8,-999.0,68,-99.99,,,0.00,Acu-Link.com,2013-08-19 17:05:00,
2013-08-19 13:21:00,77.9,66.9,29.94,NNW,337,2.7,-999.0,69,-99.99,,,0.00,Acu-Link.com,2013-08-19 17:21:00,
2013-08-19 13:36:00,78.3,67.3,29.93,NNE,22,2.2,-999.0,69,-99.99,,,0.00,Acu-Link.com,2013-08-19 17:36:00,
2013-08-19 13:52:00,77.0,66.9,29.93,NNE,22,2.7,-999.0,71,-99.99,,,0.00,Acu-Link.com,2013-08-19 17:52:00,
2013-08-19 14:07:00,78.3,67.3,29.92,NNW,337,1.1,-999.0,69,-99.99,,,0.00,Acu-Link.com,2013-08-19 18:07:00,
2013-08-19 14:22:00,76.5,66.8,29.93,SSW,202,0.0,-999.0,72,-99.99,,,0.00,Acu-Link.com,2013-08-19 18:22:00,
2013-08-19 14:37:00,77.2,66.2,29.92,SW,225,2.7,-999.0,69,-99.99,,,0.00,Acu-Link.com,2013-08-19 18:37:00,
2013-08-19 14:53:00,77.2,66.6,29.91,NNW,337,1.1,-999.0,70,-99.99,,,0.00,Acu-Link.com,2013-08-19 18:53:00,
2013-08-19 15:08:00,77.0,66.0,29.92,South,180,0.0,-999.0,69,-99.99,,,0.00,Acu-Link.com,2013-08-19 19:08:00,
2013-08-19 15:23:00,76.1,65.6,29.92,SSW,202,0.0,-999.0,70,-99.99,,,0.00,Acu-Link.com,2013-08-19 19:23:00,
2013-08-19 15:39:00,77.7,65.4,29.91,West,270,2.7,-999.0,66,-99.99,,,0.00,Acu-Link.com,2013-08-19 19:39:00,
2013-08-19 15:54:00,77.0,65.2,29.91,SW,225,1.7,-999.0,67,-99.99,,,0.00,Acu-Link.com,2013-08-19 19:54:00,
2013-08-19 16:09:00,77.5,65.7,29.90,SSW,202,0.0,-999.0,67,-99.99,,,0.00,Acu-Link.com,2013-08-19 20:09:00,
2013-08-19 16:25:00,77.2,64.9,29.91,SW,225,1.7,-999.0,66,-99.99,,,0.00,Acu-Link.com,2013-08-19 20:25:00,
2013-08-19 16:40:00,77.5,66.5,29.90,SSE,157,0.0,-999.0,69,-99.99,,,0.00,Acu-Link.com,2013-08-19 20:40:00,
2013-08-19 16:55:00,77.4,66.0,29.90,East,90,0.0,-999.0,68,-99.99,,,0.00,Acu-Link.com,2013-08-19 20:55:00,
2013-08-19 17:11:00,76.3,64.9,29.90,South,180,0.0,-999.0,68,-99.99,,,0.00,Acu-Link.com,2013-08-19 21:11:00,
2013-08-19 17:26:00,76.5,65.6,29.91,ESE,112,0.0,-999.0,69,-99.99,,,0.00,Acu-Link.com,2013-08-19 21:26:00,
2013-08-19 17:41:00,76.1,65.6,29.90,North,0,0.0,-999.0,70,-99.99,,,0.00,Acu-Link.com,2013-08-19 21:41:00,
2013-08-19 17:57:00,75.9,65.4,29.90,ENE,67,0.0,-999.0,70,-99.99,,,0.00,Acu-Link.com,2013-08-19 21:57:00,
2013-08-19 18:12:00,75.7,65.2,29.90,NNE,22,0.0,-999.0,70,-99.99,,,0.00,Acu-Link.com,2013-08-19 22:12:00,
2013-08-19 18:27:00,75.6,65.5,29.90,South,180,0.0,-999.0,71,-99.99,,,0.00,Acu-Link.com,2013-08-19 22:27:00,
2013-08-19 18:42:00,75.0,65.3,29.90,SSE,157,0.0,-999.0,72,-99.99,,,0.00,Acu-Link.com,2013-08-19 22:42:00,
2013-08-19 18:58:00,74.3,65.8,29.91,West,270,0.0,-999.0,75,-99.99,,,0.00,Acu-Link.com,2013-08-19 22:58:00,
2013-08-19 19:13:00,73.6,65.2,29.90,West,270,0.0,-999.0,75,-99.99,,,0.00,Acu-Link.com,2013-08-19 23:13:00,
2013-08-19 19:28:00,72.9,64.9,29.91,SSW,202,0.0,-999.0,76,-99.99,,,0.00,Acu-Link.com,2013-08-19 23:28:00,
2013-08-19 19:44:00,72.3,64.7,29.91,SSW,202,0.0,-999.0,77,-99.99,,,0.00,Acu-Link.com,2013-08-19 23:44:00,
2013-08-19 19:59:00,71.6,64.4,29.90,SSW,202,0.0,-999.0,78,-99.99,,,0.00,Acu-Link.com,2013-08-19 23:59:00,
2013-08-19 20:14:00,71.1,64.2,29.90,SSW,202,0.0,-999.0,79,-99.99,,,0.00,Acu-Link.com,2013-08-20 00:14:00,
2013-08-19 20:29:00,70.7,64.2,29.90,SSW,202,0.0,-999.0,80,-99.99,,,0.00,Acu-Link.com,2013-08-20 00:29:00,
2013-08-19 20:45:00,70.3,63.8,29.91,SSW,202,0.0,-999.0,80,-99.99,,,0.00,Acu-Link.com,2013-08-20 00:45:00,
2013-08-19 21:00:00,70.0,63.9,29.92,SSW,202,0.0,-999.0,81,-99.99,,,0.00,Acu-Link.com,2013-08-20 01:00:00,
2013-08-19 21:15:00,69.6,64.2,29.92,SW,225,0.0,-999.0,83,-99.99,,,0.00,Acu-Link.com,2013-08-20 01:15:00,
2013-08-19 21:30:00,69.1,64.1,29.92,WSW,247,0.0,-999.0,84,-99.99,,,0.00,Acu-Link.com,2013-08-20 01:30:00,
2013-08-19 21:46:00,68.5,63.8,29.92,South,180,0.0,-999.0,85,-99.99,,,0.00,Acu-Link.com,2013-08-20 01:46:00,
2013-08-19 22:01:00,68.2,63.8,29.93,WSW,247,0.0,-999.0,86,-99.99,,,0.00,Acu-Link.com,2013-08-20 02:01:00,
2013-08-19 22:16:00,67.8,63.5,29.93,WSW,247,0.0,-999.0,86,-99.99,,,0.00,Acu-Link.com,2013-08-20 02:16:00,
2013-08-19 22:32:00,67.5,63.5,29.92,WSW,247,0.0,-999.0,87,-99.99,,,0.00,Acu-Link.com,2013-08-20 02:32:00,
2013-08-19 22:47:00,67.3,63.3,29.93,West,270,0.0,-999.0,87,-99.99,,,0.00,Acu-Link.com,2013-08-20 02:47:00,
2013-08-19 23:02:00,67.1,63.1,29.93,West,270,0.0,-999.0,87,-99.99,,,0.00,Acu-Link.com,2013-08-20 03:02:00,
2013-08-19 23:17:00,66.7,63.0,29.93,East,90,0.0,-999.0,88,-99.99,,,0.00,Acu-Link.com,2013-08-20 03:17:00,
2013-08-19 23:33:00,66.6,62.9,29.93,East,90,0.0,-999.0,88,-99.99,,,0.00,Acu-Link.com,2013-08-20 03:33:00,
2013-08-19 23:48:00,66.2,62.5,29.93,NNW,337,0.0,-999.0,88,-99.99,,,0.00,Acu-Link.com,2013-08-20 03:48:00,